sensor_id;sensor_type;location;lat;lon;timestamp;temperature;humidity
7720;DHT22;3902;49.474;8.616;2023-11-21T00:02:06;11.30;99.90
7720;DHT22;3902;49.474;8.616;2023-11-21T00:04:32;11.40;99.90
7720;DHT22;3902;49.474;8.616;2023-11-21T00:06:57;11.40;99.90
7720;DHT22;3902;49.474;8.616;2023-11-21T00:09:23;11.30;99.90
7720;DHT22;3902;49.474;8.616;2023-11-21T00:11:48;11.30;99.90
7720;DHT22;3902;49.474;8.616;2023-11-21T00:14:14;11.40;99.90
7720;DHT22;3902;49.474;8.616;2023-11-21T00:16:41;11.30;99.90
7720;DHT22;3902;49.474;8.616;2023-11-21T00:19:07;11.30;99.90
7720;DHT22;3902;49.474;8.616;2023-11-21T00:21:32;11.30;99.90
7720;DHT22;3902;49.474;8.616;2023-11-21T00:23:58;11.30;99.90
7720;DHT22;3902;49.474;8.616;2023-11-21T00:26:23;11.30;99.90
7720;DHT22;3902;49.474;8.616;2023-11-21T00:28:49;11.30;99.90
7720;DHT22;3902;49.474;8.616;2023-11-21T00:31:15;11.30;99.90
7720;DHT22;3902;49.474;8.616;2023-11-21T00:33:41;11.30;99.90
7720;DHT22;3902;49.474;8.616;2023-11-21T00:36:07;11.30;99.90
7720;DHT22;3902;49.474;8.616;2023-11-21T00:38:35;11.30;99.90
7720;DHT22;3902;49.474;8.616;2023-11-21T00:41:00;11.30;99.90
7720;DHT22;3902;49.474;8.616;2023-11-21T00:43:26;11.30;99.90
7720;DHT22;3902;49.474;8.616;2023-11-21T00:45:51;11.30;99.90
7720;DHT22;3902;49.474;8.616;2023-11-21T00:48:17;11.30;99.90
7720;DHT22;3902;49.474;8.616;2023-11-21T00:50:44;11.30;99.90
7720;DHT22;3902;49.474;8.616;2023-11-21T00:53:09;11.30;99.90
7720;DHT22;3902;49.474;8.616;2023-11-21T00:55:36;11.30;99.90
7720;DHT22;3902;49.474;8.616;2023-11-21T00:58:02;11.20;99.90
7720;DHT22;3902;49.474;8.616;2023-11-21T01:00:29;11.20;99.90
7720;DHT22;3902;49.474;8.616;2023-11-21T01:02:55;11.30;99.90
7720;DHT22;3902;49.474;8.616;2023-11-21T01:05:20;11.30;99.90
7720;DHT22;3902;49.474;8.616;2023-11-21T01:07:46;11.30;99.90
7720;DHT22;3902;49.474;8.616;2023-11-21T01:10:11;11.30;99.90
7720;DHT22;3902;49.474;8.616;2023-11-21T01:12:37;11.30;99.90
7720;DHT22;3902;49.474;8.616;2023-11-21T01:15:05;11.30;99.90
7720;DHT22;3902;49.474;8.616;2023-11-21T01:17:33;11.30;99.90
7720;DHT22;3902;49.474;8.616;2023-11-21T01:19:59;11.30;99.90
7720;DHT22;3902;49.474;8.616;2023-11-21T01:22:25;11.30;99.90
7720;DHT22;3902;49.474;8.616;2023-11-21T01:24:52;11.30;99.90
7720;DHT22;3902;49.474;8.616;2023-11-21T01:27:18;11.30;99.90
7720;DHT22;3902;49.474;8.616;2023-11-21T01:29:44;11.30;99.90
7720;DHT22;3902;49.474;8.616;2023-11-21T01:32:10;11.30;99.90
7720;DHT22;3902;49.474;8.616;2023-11-21T01:34:35;11.30;99.90
7720;DHT22;3902;49.474;8.616;2023-11-21T01:37:01;11.30;99.90
7720;DHT22;3902;49.474;8.616;2023-11-21T01:39:30;11.30;99.90
7720;DHT22;3902;49.474;8.616;2023-11-21T01:41:55;11.30;99.90
7720;DHT22;3902;49.474;8.616;2023-11-21T01:44:21;11.30;99.90
7720;DHT22;3902;49.474;8.616;2023-11-21T01:46:47;11.30;99.90
7720;DHT22;3902;49.474;8.616;2023-11-21T01:49:13;11.30;99.90
7720;DHT22;3902;49.474;8.616;2023-11-21T01:51:42;11.30;99.90
7720;DHT22;3902;49.474;8.616;2023-11-21T01:54:09;11.30;99.90
7720;DHT22;3902;49.474;8.616;2023-11-21T01:56:34;11.30;99.90
7720;DHT22;3902;49.474;8.616;2023-11-21T01:59:00;11.30;99.90
7720;DHT22;3902;49.474;8.616;2023-11-21T02:01:26;11.30;99.90
7720;DHT22;3902;49.474;8.616;2023-11-21T02:03:51;11.30;99.90
7720;DHT22;3902;49.474;8.616;2023-11-21T02:06:18;11.30;99.90
7720;DHT22;3902;49.474;8.616;2023-11-21T02:08:44;11.30;99.90
7720;DHT22;3902;49.474;8.616;2023-11-21T02:11:10;11.40;99.90
7720;DHT22;3902;49.474;8.616;2023-11-21T02:13:38;11.30;99.90
7720;DHT22;3902;49.474;8.616;2023-11-21T02:16:04;11.30;99.90
7720;DHT22;3902;49.474;8.616;2023-11-21T02:18:31;11.40;99.90
7720;DHT22;3902;49.474;8.616;2023-11-21T02:20:56;11.30;99.90
7720;DHT22;3902;49.474;8.616;2023-11-21T02:23:22;11.40;99.90
7720;DHT22;3902;49.474;8.616;2023-11-21T02:25:48;11.40;99.90
7720;DHT22;3902;49.474;8.616;2023-11-21T02:28:14;11.30;99.90
7720;DHT22;3902;49.474;8.616;2023-11-21T02:30:41;11.30;99.90
7720;DHT22;3902;49.474;8.616;2023-11-21T02:33:08;11.30;99.90
7720;DHT22;3902;49.474;8.616;2023-11-21T02:35:33;11.30;99.90
7720;DHT22;3902;49.474;8.616;2023-11-21T02:38:00;11.30;99.90
7720;DHT22;3902;49.474;8.616;2023-11-21T02:40:25;11.30;99.90
7720;DHT22;3902;49.474;8.616;2023-11-21T02:42:52;11.30;99.90
7720;DHT22;3902;49.474;8.616;2023-11-21T02:45:19;11.30;99.90
7720;DHT22;3902;49.474;8.616;2023-11-21T02:47:46;11.40;99.90
7720;DHT22;3902;49.474;8.616;2023-11-21T02:50:12;11.30;99.90
7720;DHT22;3902;49.474;8.616;2023-11-21T02:52:38;11.30;99.90
7720;DHT22;3902;49.474;8.616;2023-11-21T02:55:05;11.30;99.90
7720;DHT22;3902;49.474;8.616;2023-11-21T02:57:32;11.40;99.90
7720;DHT22;3902;49.474;8.616;2023-11-21T02:59:59;11.30;99.90
7720;DHT22;3902;49.474;8.616;2023-11-21T03:02:25;11.30;99.90
7720;DHT22;3902;49.474;8.616;2023-11-21T03:04:51;11.30;99.90
7720;DHT22;3902;49.474;8.616;2023-11-21T03:07:17;11.30;99.90
7720;DHT22;3902;49.474;8.616;2023-11-21T03:09:44;11.30;99.90
7720;DHT22;3902;49.474;8.616;2023-11-21T03:12:10;11.40;99.90
7720;DHT22;3902;49.474;8.616;2023-11-21T03:14:37;11.40;99.90
7720;DHT22;3902;49.474;8.616;2023-11-21T03:17:03;11.40;99.90
7720;DHT22;3902;49.474;8.616;2023-11-21T03:19:30;11.40;99.90
7720;DHT22;3902;49.474;8.616;2023-11-21T03:21:55;11.40;99.90
7720;DHT22;3902;49.474;8.616;2023-11-21T03:24:21;11.30;99.90
7720;DHT22;3902;49.474;8.616;2023-11-21T03:26:48;11.40;99.90
7720;DHT22;3902;49.474;8.616;2023-11-21T03:29:13;11.40;99.90
7720;DHT22;3902;49.474;8.616;2023-11-21T03:31:40;11.40;99.90
7720;DHT22;3902;49.474;8.616;2023-11-21T03:34:05;11.40;99.90
7720;DHT22;3902;49.474;8.616;2023-11-21T03:36:31;11.30;99.90
7720;DHT22;3902;49.474;8.616;2023-11-21T03:38:57;11.30;99.90
7720;DHT22;3902;49.474;8.616;2023-11-21T03:41:23;11.30;99.90
7720;DHT22;3902;49.474;8.616;2023-11-21T03:43:48;11.30;99.90
7720;DHT22;3902;49.474;8.616;2023-11-21T03:46:14;11.40;99.90
7720;DHT22;3902;49.474;8.616;2023-11-21T03:48:39;11.30;99.90
7720;DHT22;3902;49.474;8.616;2023-11-21T03:51:05;11.40;99.90
7720;DHT22;3902;49.474;8.616;2023-11-21T03:53:31;11.30;99.90
7720;DHT22;3902;49.474;8.616;2023-11-21T03:55:57;11.30;99.90
7720;DHT22;3902;49.474;8.616;2023-11-21T03:58:23;11.30;99.90
7720;DHT22;3902;49.474;8.616;2023-11-21T04:00:48;11.30;99.90
7720;DHT22;3902;49.474;8.616;2023-11-21T04:03:17;11.30;99.90
7720;DHT22;3902;49.474;8.616;2023-11-21T04:05:42;11.30;99.90
7720;DHT22;3902;49.474;8.616;2023-11-21T04:08:08;11.30;99.90
7720;DHT22;3902;49.474;8.616;2023-11-21T04:10:33;11.30;99.90
7720;DHT22;3902;49.474;8.616;2023-11-21T04:12:59;11.30;99.90
7720;DHT22;3902;49.474;8.616;2023-11-21T04:15:25;11.30;99.90
7720;DHT22;3902;49.474;8.616;2023-11-21T04:17:51;11.40;99.90
7720;DHT22;3902;49.474;8.616;2023-11-21T04:20:17;11.40;99.90
7720;DHT22;3902;49.474;8.616;2023-11-21T04:22:43;11.40;99.90
7720;DHT22;3902;49.474;8.616;2023-11-21T04:25:10;11.40;99.90
7720;DHT22;3902;49.474;8.616;2023-11-21T04:27:38;11.40;99.90
7720;DHT22;3902;49.474;8.616;2023-11-21T04:30:04;11.40;99.90
7720;DHT22;3902;49.474;8.616;2023-11-21T04:32:30;11.40;99.90
7720;DHT22;3902;49.474;8.616;2023-11-21T04:34:56;11.40;99.90
7720;DHT22;3902;49.474;8.616;2023-11-21T04:37:21;11.40;99.90
7720;DHT22;3902;49.474;8.616;2023-11-21T04:39:48;11.40;99.90
7720;DHT22;3902;49.474;8.616;2023-11-21T04:42:13;11.40;99.90
7720;DHT22;3902;49.474;8.616;2023-11-21T04:44:38;11.40;99.90
7720;DHT22;3902;49.474;8.616;2023-11-21T04:47:06;11.40;99.90
7720;DHT22;3902;49.474;8.616;2023-11-21T04:49:33;11.40;99.90
7720;DHT22;3902;49.474;8.616;2023-11-21T04:51:59;11.40;99.90
7720;DHT22;3902;49.474;8.616;2023-11-21T04:54:24;11.40;99.90
7720;DHT22;3902;49.474;8.616;2023-11-21T04:56:50;11.40;99.90
7720;DHT22;3902;49.474;8.616;2023-11-21T04:59:15;11.40;99.90
7720;DHT22;3902;49.474;8.616;2023-11-21T05:01:41;11.40;99.90
7720;DHT22;3902;49.474;8.616;2023-11-21T05:04:06;11.40;99.90
7720;DHT22;3902;49.474;8.616;2023-11-21T05:06:34;11.40;99.90
7720;DHT22;3902;49.474;8.616;2023-11-21T05:08:59;11.40;99.90
7720;DHT22;3902;49.474;8.616;2023-11-21T05:11:28;11.40;99.90
7720;DHT22;3902;49.474;8.616;2023-11-21T05:13:57;11.40;99.90
7720;DHT22;3902;49.474;8.616;2023-11-21T05:16:26;11.40;99.90
7720;DHT22;3902;49.474;8.616;2023-11-21T05:18:53;11.40;99.90
7720;DHT22;3902;49.474;8.616;2023-11-21T05:21:18;11.40;99.90
7720;DHT22;3902;49.474;8.616;2023-11-21T05:23:46;11.40;99.90
7720;DHT22;3902;49.474;8.616;2023-11-21T05:26:11;11.40;99.90
7720;DHT22;3902;49.474;8.616;2023-11-21T05:28:37;11.30;99.90
7720;DHT22;3902;49.474;8.616;2023-11-21T05:31:02;11.40;99.90
7720;DHT22;3902;49.474;8.616;2023-11-21T05:33:28;11.40;99.90
7720;DHT22;3902;49.474;8.616;2023-11-21T05:35:53;11.30;99.90
7720;DHT22;3902;49.474;8.616;2023-11-21T05:38:19;11.30;99.90
7720;DHT22;3902;49.474;8.616;2023-11-21T05:40:47;11.30;99.90
7720;DHT22;3902;49.474;8.616;2023-11-21T05:43:13;11.30;99.90
7720;DHT22;3902;49.474;8.616;2023-11-21T05:45:38;11.30;99.90
7720;DHT22;3902;49.474;8.616;2023-11-21T05:48:04;11.30;99.90
7720;DHT22;3902;49.474;8.616;2023-11-21T05:50:31;11.30;99.90
7720;DHT22;3902;49.474;8.616;2023-11-21T05:52:57;11.30;99.90
7720;DHT22;3902;49.474;8.616;2023-11-21T05:55:25;11.30;99.90
7720;DHT22;3902;49.474;8.616;2023-11-21T05:57:51;11.30;99.90
7720;DHT22;3902;49.474;8.616;2023-11-21T06:00:17;11.30;99.90
7720;DHT22;3902;49.474;8.616;2023-11-21T06:02:47;11.30;99.90
7720;DHT22;3902;49.474;8.616;2023-11-21T06:05:12;11.40;99.90
7720;DHT22;3902;49.474;8.616;2023-11-21T06:07:38;11.30;99.90
7720;DHT22;3902;49.474;8.616;2023-11-21T06:10:07;11.40;99.90
7720;DHT22;3902;49.474;8.616;2023-11-21T06:12:34;11.40;99.90
7720;DHT22;3902;49.474;8.616;2023-11-21T06:15:02;11.30;99.90
7720;DHT22;3902;49.474;8.616;2023-11-21T06:17:30;11.30;99.90
7720;DHT22;3902;49.474;8.616;2023-11-21T06:19:56;11.30;99.90
7720;DHT22;3902;49.474;8.616;2023-11-21T06:22:22;11.30;99.90
7720;DHT22;3902;49.474;8.616;2023-11-21T06:24:47;11.40;99.90
7720;DHT22;3902;49.474;8.616;2023-11-21T06:27:13;11.30;99.90
7720;DHT22;3902;49.474;8.616;2023-11-21T06:29:39;11.30;99.90
7720;DHT22;3902;49.474;8.616;2023-11-21T06:32:05;11.30;99.90
7720;DHT22;3902;49.474;8.616;2023-11-21T06:34:31;11.30;99.90
7720;DHT22;3902;49.474;8.616;2023-11-21T06:36:56;11.30;99.90
7720;DHT22;3902;49.474;8.616;2023-11-21T06:39:22;11.30;99.90
7720;DHT22;3902;49.474;8.616;2023-11-21T06:41:51;11.30;99.90
7720;DHT22;3902;49.474;8.616;2023-11-21T06:44:17;11.40;99.90
7720;DHT22;3902;49.474;8.616;2023-11-21T06:46:43;11.40;99.90
7720;DHT22;3902;49.474;8.616;2023-11-21T06:49:08;11.40;99.90
7720;DHT22;3902;49.474;8.616;2023-11-21T06:51:34;11.30;99.90
7720;DHT22;3902;49.474;8.616;2023-11-21T06:53:59;11.40;99.90
7720;DHT22;3902;49.474;8.616;2023-11-21T06:56:25;11.40;99.90
7720;DHT22;3902;49.474;8.616;2023-11-21T06:58:51;11.40;99.90
7720;DHT22;3902;49.474;8.616;2023-11-21T07:01:19;11.40;99.90
7720;DHT22;3902;49.474;8.616;2023-11-21T07:03:45;11.40;99.90
7720;DHT22;3902;49.474;8.616;2023-11-21T07:06:11;11.40;99.90
7720;DHT22;3902;49.474;8.616;2023-11-21T07:08:37;11.40;99.90
7720;DHT22;3902;49.474;8.616;2023-11-21T07:11:04;11.40;99.90
7720;DHT22;3902;49.474;8.616;2023-11-21T07:13:30;11.40;99.90
7720;DHT22;3902;49.474;8.616;2023-11-21T07:16:00;11.40;99.90
7720;DHT22;3902;49.474;8.616;2023-11-21T07:18:25;11.40;99.90
7720;DHT22;3902;49.474;8.616;2023-11-21T07:20:51;11.40;99.90
7720;DHT22;3902;49.474;8.616;2023-11-21T07:23:17;11.40;99.90
7720;DHT22;3902;49.474;8.616;2023-11-21T07:25:42;11.40;99.90
7720;DHT22;3902;49.474;8.616;2023-11-21T07:28:08;11.40;99.90
7720;DHT22;3902;49.474;8.616;2023-11-21T07:30:34;11.40;99.90
7720;DHT22;3902;49.474;8.616;2023-11-21T07:32:59;11.40;99.90
7720;DHT22;3902;49.474;8.616;2023-11-21T07:35:25;11.40;99.90
7720;DHT22;3902;49.474;8.616;2023-11-21T07:37:51;11.40;99.90
7720;DHT22;3902;49.474;8.616;2023-11-21T07:40:17;11.50;99.90
7720;DHT22;3902;49.474;8.616;2023-11-21T07:42:43;11.40;99.90
7720;DHT22;3902;49.474;8.616;2023-11-21T07:45:09;11.40;99.90
7720;DHT22;3902;49.474;8.616;2023-11-21T07:47:34;11.40;99.90
7720;DHT22;3902;49.474;8.616;2023-11-21T07:50:02;11.40;99.90
7720;DHT22;3902;49.474;8.616;2023-11-21T07:52:28;11.50;99.90
7720;DHT22;3902;49.474;8.616;2023-11-21T07:54:53;11.40;99.90
7720;DHT22;3902;49.474;8.616;2023-11-21T07:57:19;11.40;99.90
7720;DHT22;3902;49.474;8.616;2023-11-21T07:59:45;11.50;99.90
7720;DHT22;3902;49.474;8.616;2023-11-21T08:02:10;11.50;99.90
7720;DHT22;3902;49.474;8.616;2023-11-21T08:04:36;11.50;99.90
7720;DHT22;3902;49.474;8.616;2023-11-21T08:07:02;11.50;99.90
7720;DHT22;3902;49.474;8.616;2023-11-21T08:09:29;11.60;99.90
7720;DHT22;3902;49.474;8.616;2023-11-21T08:11:55;11.50;99.90
7720;DHT22;3902;49.474;8.616;2023-11-21T08:14:20;11.60;99.90
7720;DHT22;3902;49.474;8.616;2023-11-21T08:16:46;11.60;99.90
7720;DHT22;3902;49.474;8.616;2023-11-21T08:19:12;11.60;99.90
7720;DHT22;3902;49.474;8.616;2023-11-21T08:21:38;11.60;99.90
7720;DHT22;3902;49.474;8.616;2023-11-21T08:24:05;11.60;99.90
7720;DHT22;3902;49.474;8.616;2023-11-21T08:26:31;11.60;99.90
7720;DHT22;3902;49.474;8.616;2023-11-21T08:28:56;11.70;99.90
7720;DHT22;3902;49.474;8.616;2023-11-21T08:31:26;11.70;99.90
7720;DHT22;3902;49.474;8.616;2023-11-21T08:33:51;11.70;99.90
7720;DHT22;3902;49.474;8.616;2023-11-21T08:36:20;11.80;99.90
7720;DHT22;3902;49.474;8.616;2023-11-21T08:38:46;11.80;99.90
7720;DHT22;3902;49.474;8.616;2023-11-21T08:41:11;11.80;99.90
7720;DHT22;3902;49.474;8.616;2023-11-21T08:43:37;11.80;99.90
7720;DHT22;3902;49.474;8.616;2023-11-21T08:46:08;11.90;99.90
7720;DHT22;3902;49.474;8.616;2023-11-21T08:48:36;11.90;99.90
7720;DHT22;3902;49.474;8.616;2023-11-21T08:51:02;11.90;99.90
7720;DHT22;3902;49.474;8.616;2023-11-21T08:53:27;11.90;99.90
7720;DHT22;3902;49.474;8.616;2023-11-21T08:55:53;11.90;99.90
7720;DHT22;3902;49.474;8.616;2023-11-21T08:58:19;11.90;99.90
7720;DHT22;3902;49.474;8.616;2023-11-21T09:00:45;11.90;99.90
7720;DHT22;3902;49.474;8.616;2023-11-21T09:03:12;11.90;99.90
7720;DHT22;3902;49.474;8.616;2023-11-21T09:05:38;11.90;99.90
7720;DHT22;3902;49.474;8.616;2023-11-21T09:08:04;11.90;99.90
7720;DHT22;3902;49.474;8.616;2023-11-21T09:10:30;11.90;99.90
7720;DHT22;3902;49.474;8.616;2023-11-21T09:12:56;11.90;99.90
7720;DHT22;3902;49.474;8.616;2023-11-21T09:15:22;11.90;99.90
7720;DHT22;3902;49.474;8.616;2023-11-21T09:17:48;11.90;99.90
7720;DHT22;3902;49.474;8.616;2023-11-21T09:20:13;11.90;99.90
7720;DHT22;3902;49.474;8.616;2023-11-21T09:22:40;12.00;99.90
7720;DHT22;3902;49.474;8.616;2023-11-21T09:25:06;12.00;99.90
7720;DHT22;3902;49.474;8.616;2023-11-21T09:27:34;12.00;99.90
7720;DHT22;3902;49.474;8.616;2023-11-21T09:30:01;12.00;99.90
7720;DHT22;3902;49.474;8.616;2023-11-21T09:32:26;12.00;99.90
7720;DHT22;3902;49.474;8.616;2023-11-21T09:34:52;12.00;99.90
7720;DHT22;3902;49.474;8.616;2023-11-21T09:37:19;12.00;99.90
7720;DHT22;3902;49.474;8.616;2023-11-21T09:39:45;11.90;99.90
7720;DHT22;3902;49.474;8.616;2023-11-21T09:42:21;11.90;99.90
7720;DHT22;3902;49.474;8.616;2023-11-21T09:44:57;11.90;99.90
7720;DHT22;3902;49.474;8.616;2023-11-21T09:47:26;11.90;99.90
7720;DHT22;3902;49.474;8.616;2023-11-21T09:49:54;11.90;99.90
7720;DHT22;3902;49.474;8.616;2023-11-21T09:52:25;11.90;99.90
7720;DHT22;3902;49.474;8.616;2023-11-21T09:54:52;11.90;99.90
7720;DHT22;3902;49.474;8.616;2023-11-21T09:57:21;11.90;99.90
7720;DHT22;3902;49.474;8.616;2023-11-21T09:59:51;11.90;99.90
7720;DHT22;3902;49.474;8.616;2023-11-21T10:02:22;11.90;99.90
7720;DHT22;3902;49.474;8.616;2023-11-21T10:04:47;11.90;99.90
7720;DHT22;3902;49.474;8.616;2023-11-21T10:07:16;11.90;99.90
7720;DHT22;3902;49.474;8.616;2023-11-21T10:09:43;11.90;99.90
7720;DHT22;3902;49.474;8.616;2023-11-21T10:12:10;11.90;99.90
7720;DHT22;3902;49.474;8.616;2023-11-21T10:14:40;11.90;99.90
7720;DHT22;3902;49.474;8.616;2023-11-21T10:17:08;11.90;99.90
7720;DHT22;3902;49.474;8.616;2023-11-21T10:19:35;12.00;99.90
7720;DHT22;3902;49.474;8.616;2023-11-21T10:22:01;12.00;99.90
7720;DHT22;3902;49.474;8.616;2023-11-21T10:24:27;12.00;99.90
7720;DHT22;3902;49.474;8.616;2023-11-21T10:26:52;12.00;99.90
7720;DHT22;3902;49.474;8.616;2023-11-21T10:29:19;12.00;99.90
7720;DHT22;3902;49.474;8.616;2023-11-21T10:31:49;12.10;99.90
7720;DHT22;3902;49.474;8.616;2023-11-21T10:34:19;12.10;99.90
7720;DHT22;3902;49.474;8.616;2023-11-21T10:36:45;12.10;99.90
7720;DHT22;3902;49.474;8.616;2023-11-21T10:39:18;12.10;99.90
7720;DHT22;3902;49.474;8.616;2023-11-21T10:41:48;12.10;99.90
7720;DHT22;3902;49.474;8.616;2023-11-21T10:44:14;12.10;99.90
7720;DHT22;3902;49.474;8.616;2023-11-21T10:46:49;12.10;99.90
7720;DHT22;3902;49.474;8.616;2023-11-21T10:49:18;12.10;99.90
7720;DHT22;3902;49.474;8.616;2023-11-21T10:51:44;12.10;99.90
7720;DHT22;3902;49.474;8.616;2023-11-21T10:54:09;12.10;99.90
7720;DHT22;3902;49.474;8.616;2023-11-21T10:56:36;12.10;99.90
7720;DHT22;3902;49.474;8.616;2023-11-21T10:59:09;12.10;99.90
7720;DHT22;3902;49.474;8.616;2023-11-21T11:01:36;12.00;99.90
7720;DHT22;3902;49.474;8.616;2023-11-21T11:04:04;12.00;99.90
7720;DHT22;3902;49.474;8.616;2023-11-21T11:06:31;12.00;99.90
7720;DHT22;3902;49.474;8.616;2023-11-21T11:08:59;12.00;99.90
7720;DHT22;3902;49.474;8.616;2023-11-21T11:11:25;12.10;99.90
7720;DHT22;3902;49.474;8.616;2023-11-21T11:13:51;12.10;99.90
7720;DHT22;3902;49.474;8.616;2023-11-21T11:16:18;12.10;99.90
7720;DHT22;3902;49.474;8.616;2023-11-21T11:18:44;12.10;99.90
7720;DHT22;3902;49.474;8.616;2023-11-21T11:21:17;12.10;99.90
7720;DHT22;3902;49.474;8.616;2023-11-21T11:23:49;12.10;99.90
7720;DHT22;3902;49.474;8.616;2023-11-21T11:26:57;12.10;99.90
7720;DHT22;3902;49.474;8.616;2023-11-21T11:29:43;12.10;99.90
7720;DHT22;3902;49.474;8.616;2023-11-21T11:35:11;12.10;99.90
7720;DHT22;3902;49.474;8.616;2023-11-21T11:37:42;12.10;99.90
7720;DHT22;3902;49.474;8.616;2023-11-21T11:40:08;12.10;99.90
7720;DHT22;3902;49.474;8.616;2023-11-21T11:42:36;12.20;99.90
7720;DHT22;3902;49.474;8.616;2023-11-21T11:45:01;12.20;99.90
7720;DHT22;3902;49.474;8.616;2023-11-21T11:47:32;12.20;99.90
7720;DHT22;3902;49.474;8.616;2023-11-21T11:52:38;12.30;99.90
7720;DHT22;3902;49.474;8.616;2023-11-21T11:55:12;12.30;99.90
7720;DHT22;3902;49.474;8.616;2023-11-21T11:57:42;12.40;99.90
7720;DHT22;3902;49.474;8.616;2023-11-21T12:02:51;12.50;99.90
7720;DHT22;3902;49.474;8.616;2023-11-21T12:05:19;12.60;99.90
7720;DHT22;3902;49.474;8.616;2023-11-21T12:07:52;12.60;99.90
7720;DHT22;3902;49.474;8.616;2023-11-21T12:10:29;12.80;99.90
7720;DHT22;3902;49.474;8.616;2023-11-21T12:13:00;13.00;99.90
7720;DHT22;3902;49.474;8.616;2023-11-21T12:15:26;13.10;99.90
7720;DHT22;3902;49.474;8.616;2023-11-21T12:17:55;13.20;99.90
7720;DHT22;3902;49.474;8.616;2023-11-21T12:20:22;13.30;99.90
7720;DHT22;3902;49.474;8.616;2023-11-21T12:22:51;13.40;99.90
7720;DHT22;3902;49.474;8.616;2023-11-21T12:25:17;13.30;99.90
7720;DHT22;3902;49.474;8.616;2023-11-21T12:27:51;13.40;99.90
7720;DHT22;3902;49.474;8.616;2023-11-21T12:30:18;13.40;99.90
7720;DHT22;3902;49.474;8.616;2023-11-21T12:32:44;13.30;99.90
7720;DHT22;3902;49.474;8.616;2023-11-21T12:35:13;13.30;99.90
7720;DHT22;3902;49.474;8.616;2023-11-21T12:37:40;13.30;99.90
7720;DHT22;3902;49.474;8.616;2023-11-21T12:40:08;13.30;99.90
7720;DHT22;3902;49.474;8.616;2023-11-21T12:42:37;13.30;99.90
7720;DHT22;3902;49.474;8.616;2023-11-21T12:45:08;13.40;99.90
7720;DHT22;3902;49.474;8.616;2023-11-21T12:47:35;13.40;99.90
7720;DHT22;3902;49.474;8.616;2023-11-21T12:50:02;13.50;99.90
7720;DHT22;3902;49.474;8.616;2023-11-21T12:52:30;13.60;99.90
7720;DHT22;3902;49.474;8.616;2023-11-21T12:54:56;13.70;99.90
7720;DHT22;3902;49.474;8.616;2023-11-21T12:57:25;13.90;99.90
7720;DHT22;3902;49.474;8.616;2023-11-21T12:59:57;14.10;99.90
7720;DHT22;3902;49.474;8.616;2023-11-21T13:02:25;14.40;99.90
7720;DHT22;3902;49.474;8.616;2023-11-21T13:04:54;14.70;99.90
7720;DHT22;3902;49.474;8.616;2023-11-21T13:07:19;15.10;99.90
7720;DHT22;3902;49.474;8.616;2023-11-21T13:09:47;15.60;99.90
7720;DHT22;3902;49.474;8.616;2023-11-21T13:12:17;15.90;99.90
7720;DHT22;3902;49.474;8.616;2023-11-21T13:14:46;16.10;99.90
7720;DHT22;3902;49.474;8.616;2023-11-21T13:17:12;16.30;99.90
7720;DHT22;3902;49.474;8.616;2023-11-21T13:19:38;16.30;99.90
7720;DHT22;3902;49.474;8.616;2023-11-21T13:22:03;16.30;99.90
7720;DHT22;3902;49.474;8.616;2023-11-21T13:24:29;16.10;99.90
7720;DHT22;3902;49.474;8.616;2023-11-21T13:26:55;15.80;99.90
7720;DHT22;3902;49.474;8.616;2023-11-21T13:29:20;15.60;99.90
7720;DHT22;3902;49.474;8.616;2023-11-21T13:31:46;15.40;99.90
7720;DHT22;3902;49.474;8.616;2023-11-21T13:34:16;15.20;99.90
7720;DHT22;3902;49.474;8.616;2023-11-21T13:36:44;15.10;99.90
7720;DHT22;3902;49.474;8.616;2023-11-21T13:39:11;14.90;99.90
7720;DHT22;3902;49.474;8.616;2023-11-21T13:41:40;14.90;99.90
7720;DHT22;3902;49.474;8.616;2023-11-21T13:44:06;14.90;99.90
7720;DHT22;3902;49.474;8.616;2023-11-21T13:46:51;14.90;99.90
7720;DHT22;3902;49.474;8.616;2023-11-21T13:49:17;14.90;99.90
7720;DHT22;3902;49.474;8.616;2023-11-21T13:51:43;14.90;99.90
7720;DHT22;3902;49.474;8.616;2023-11-21T13:54:16;14.80;99.90
7720;DHT22;3902;49.474;8.616;2023-11-21T13:56:42;14.80;99.90
7720;DHT22;3902;49.474;8.616;2023-11-21T13:59:10;14.80;99.90
7720;DHT22;3902;49.474;8.616;2023-11-21T14:01:46;14.70;99.90
7720;DHT22;3902;49.474;8.616;2023-11-21T14:04:22;14.70;99.90
7720;DHT22;3902;49.474;8.616;2023-11-21T14:07:05;14.60;99.90
7720;DHT22;3902;49.474;8.616;2023-11-21T14:09:48;14.60;99.90
7720;DHT22;3902;49.474;8.616;2023-11-21T14:12:15;14.60;99.90
7720;DHT22;3902;49.474;8.616;2023-11-21T14:14:41;14.40;99.90
7720;DHT22;3902;49.474;8.616;2023-11-21T14:17:06;14.30;99.90
7720;DHT22;3902;49.474;8.616;2023-11-21T14:19:32;14.30;99.90
7720;DHT22;3902;49.474;8.616;2023-11-21T14:21:59;14.20;99.90
7720;DHT22;3902;49.474;8.616;2023-11-21T14:24:26;14.10;99.90
7720;DHT22;3902;49.474;8.616;2023-11-21T14:26:51;14.10;99.90
7720;DHT22;3902;49.474;8.616;2023-11-21T14:29:18;14.00;99.90
7720;DHT22;3902;49.474;8.616;2023-11-21T14:31:47;13.90;99.90
7720;DHT22;3902;49.474;8.616;2023-11-21T14:34:13;13.80;99.90
7720;DHT22;3902;49.474;8.616;2023-11-21T14:36:40;13.80;99.90
7720;DHT22;3902;49.474;8.616;2023-11-21T14:39:06;13.70;99.90
7720;DHT22;3902;49.474;8.616;2023-11-21T14:41:35;13.70;99.90
7720;DHT22;3902;49.474;8.616;2023-11-21T14:44:03;13.70;99.90
7720;DHT22;3902;49.474;8.616;2023-11-21T14:46:30;13.60;99.90
7720;DHT22;3902;49.474;8.616;2023-11-21T14:48:55;13.60;99.90
7720;DHT22;3902;49.474;8.616;2023-11-21T14:51:47;13.50;99.90
7720;DHT22;3902;49.474;8.616;2023-11-21T14:54:26;13.40;99.90
7720;DHT22;3902;49.474;8.616;2023-11-21T14:57:06;13.40;99.90
7720;DHT22;3902;49.474;8.616;2023-11-21T14:59:36;13.40;99.90
7720;DHT22;3902;49.474;8.616;2023-11-21T15:02:01;13.40;99.90
7720;DHT22;3902;49.474;8.616;2023-11-21T15:04:41;13.30;99.90
7720;DHT22;3902;49.474;8.616;2023-11-21T15:07:07;13.30;99.90
7720;DHT22;3902;49.474;8.616;2023-11-21T15:09:33;13.20;99.90
7720;DHT22;3902;49.474;8.616;2023-11-21T15:12:00;13.20;99.90
7720;DHT22;3902;49.474;8.616;2023-11-21T15:14:39;13.10;99.90
7720;DHT22;3902;49.474;8.616;2023-11-21T15:17:05;13.10;99.90
7720;DHT22;3902;49.474;8.616;2023-11-21T15:19:31;13.00;99.90
7720;DHT22;3902;49.474;8.616;2023-11-21T15:21:57;13.00;99.90
7720;DHT22;3902;49.474;8.616;2023-11-21T15:24:23;12.90;99.90
7720;DHT22;3902;49.474;8.616;2023-11-21T15:26:50;12.90;99.90
7720;DHT22;3902;49.474;8.616;2023-11-21T15:29:15;12.80;99.90
7720;DHT22;3902;49.474;8.616;2023-11-21T15:31:42;12.80;99.90
7720;DHT22;3902;49.474;8.616;2023-11-21T15:34:13;12.80;99.90
7720;DHT22;3902;49.474;8.616;2023-11-21T15:36:38;12.70;99.90
7720;DHT22;3902;49.474;8.616;2023-11-21T15:39:04;12.70;99.90
7720;DHT22;3902;49.474;8.616;2023-11-21T15:41:30;12.60;99.90
7720;DHT22;3902;49.474;8.616;2023-11-21T15:43:55;12.60;99.90
7720;DHT22;3902;49.474;8.616;2023-11-21T15:46:21;12.60;99.90
7720;DHT22;3902;49.474;8.616;2023-11-21T15:48:47;12.50;99.90
7720;DHT22;3902;49.474;8.616;2023-11-21T15:51:19;12.50;99.90
7720;DHT22;3902;49.474;8.616;2023-11-21T15:53:45;12.40;99.90
7720;DHT22;3902;49.474;8.616;2023-11-21T15:56:11;12.40;99.90
7720;DHT22;3902;49.474;8.616;2023-11-21T15:58:41;12.40;99.90
7720;DHT22;3902;49.474;8.616;2023-11-21T16:01:11;12.30;99.90
7720;DHT22;3902;49.474;8.616;2023-11-21T16:03:38;12.30;99.90
7720;DHT22;3902;49.474;8.616;2023-11-21T16:06:04;12.30;99.90
7720;DHT22;3902;49.474;8.616;2023-11-21T16:08:31;12.20;99.90
7720;DHT22;3902;49.474;8.616;2023-11-21T16:10:56;12.20;99.90